Time;durP1;ratioP1;P1;durP2;ratioP2;P2;SDS_P1;SDS_P2;PMS_P1;PMS_P2;Temp;Humidity;BMP_temperature;BMP_pressure;BME280_temperature;BME280_humidity;BME280_pressure;Samples;Min_cycle;Max_cycle;Signal;HPM_P1;HPM_P2
2023/02/06 00:01:19;;;;;;;26.02;11.40;;;;;;;-1.67;100.00;103345.25;5009397;28;20019;-77
2023/02/06 00:03:44;;;;;;;28.83;11.18;;;;;;;-1.76;100.00;103340.13;5006222;28;20045;-77
2023/02/06 00:06:10;;;;;;;31.20;10.55;;;;;;;-1.85;100.00;103340.25;5009862;28;20045;-79
2023/02/06 00:08:35;;;;;;;26.50;10.43;;;;;;;-1.94;100.00;103336.00;5007874;28;20088;-77
2023/02/06 00:11:06;;;;;;;23.52;9.30;;;;;;;-1.98;100.00;103347.41;5008134;28;20512;-78
2023/02/06 00:13:33;;;;;;;24.92;9.63;;;;;;;-2.02;100.00;103353.56;5009539;28;20041;-78
2023/02/06 00:15:58;;;;;;;30.50;10.32;;;;;;;-2.07;100.00;103357.97;5010340;28;20045;-78
2023/02/06 00:18:24;;;;;;;23.17;10.57;;;;;;;-2.14;100.00;103342.31;4996060;28;20034;-78
2023/02/06 00:20:49;;;;;;;23.50;9.98;;;;;;;-2.08;100.00;103351.88;5009769;28;20475;-78
2023/02/06 00:23:14;;;;;;;27.60;10.63;;;;;;;-2.11;100.00;103349.28;5011430;28;20030;-78
2023/02/06 00:25:40;;;;;;;29.13;11.23;;;;;;;-2.17;100.00;103352.84;5022490;28;20521;-76
2023/02/06 00:28:05;;;;;;;25.23;9.82;;;;;;;-2.27;100.00;103338.13;5027355;28;20395;-78
2023/02/06 00:30:30;;;;;;;33.20;12.52;;;;;;;-2.26;100.00;103337.22;5008900;28;20522;-78
2023/02/06 00:32:56;;;;;;;22.70;9.43;;;;;;;-2.28;100.00;103349.47;5003415;28;20056;-79
2023/02/06 00:35:21;;;;;;;30.70;11.30;;;;;;;-2.30;100.00;103351.22;5005193;28;20466;-78
2023/02/06 00:37:46;;;;;;;26.77;10.95;;;;;;;-2.29;100.00;103352.13;5009829;28;20443;-77
2023/02/06 00:40:12;;;;;;;32.35;10.18;;;;;;;-2.32;100.00;103358.22;5009968;28;20083;-77
2023/02/06 00:42:37;;;;;;;29.15;10.30;;;;;;;-2.35;100.00;103353.88;5024976;28;20053;-76
2023/02/06 00:45:03;;;;;;;22.88;9.95;;;;;;;-2.33;100.00;103353.88;5015759;28;20049;-76
2023/02/06 00:47:28;;;;;;;24.15;8.90;;;;;;;-2.34;100.00;103341.69;5011596;28;20085;-78
2023/02/06 00:49:54;;;;;;;22.80;9.88;;;;;;;-2.22;100.00;103359.88;5027452;28;20064;-78
2023/02/06 00:52:19;;;;;;;31.13;10.77;;;;;;;-2.10;100.00;103358.88;5012410;28;20044;-76
2023/02/06 00:54:44;;;;;;;35.08;10.80;;;;;;;-2.20;100.00;103347.66;4999327;28;20044;-79
2023/02/06 00:57:10;;;;;;;26.00;10.02;;;;;;;-2.20;100.00;103347.66;5011891;28;20041;-78
2023/02/06 00:59:35;;;;;;;29.63;11.77;;;;;;;-2.20;100.00;103362.47;5026592;28;20183;-76
2023/02/06 01:02:00;;;;;;;27.25;10.88;;;;;;;-2.26;100.00;103352.94;5013317;28;20060;-78
2023/02/06 01:04:26;;;;;;;28.15;10.93;;;;;;;-2.32;100.00;103352.97;4997040;28;20042;-77
2023/02/06 01:06:52;;;;;;;27.77;10.63;;;;;;;-2.31;100.00;103354.75;5010559;28;20095;-78
2023/02/06 01:09:17;;;;;;;30.13;9.75;;;;;;;-2.21;100.00;103365.97;5013199;28;20041;-76
2023/02/06 01:11:42;;;;;;;24.25;9.32;;;;;;;-2.12;100.00;103365.88;5010476;28;20158;-76
2023/02/06 01:14:08;;;;;;;35.08;9.85;;;;;;;-2.09;100.00;103380.69;5021482;28;20041;-78
2023/02/06 01:16:34;;;;;;;29.08;11.05;;;;;;;-2.12;100.00;103379.84;5008651;28;20532;-78
2023/02/06 01:19:00;;;;;;;35.85;10.38;;;;;;;-2.14;100.00;103388.59;4994367;28;20038;-77
2023/02/06 01:21:25;;;;;;;27.55;9.48;;;;;;;-2.18;100.00;103393.00;5024803;28;20590;-76
2023/02/06 01:23:52;;;;;;;25.70;9.43;;;;;;;-2.26;100.00;103386.09;5022924;28;20036;-77
2023/02/06 01:26:21;;;;;;;26.20;9.20;;;;;;;-2.29;100.00;103405.31;5008918;28;20044;-77
2023/02/06 01:28:47;;;;;;;20.25;7.43;;;;;;;-2.43;100.00;103387.13;5022208;28;20129;-78
2023/02/06 01:31:40;;;;;;;21.83;10.07;;;;;;;-2.55;100.00;103382.88;5006716;28;20033;-76
2023/02/06 01:34:06;;;;;;;22.67;10.25;;;;;;;-2.49;100.00;103392.41;5019022;28;20037;-76
2023/02/06 01:36:34;;;;;;;21.25;9.45;;;;;;;-2.45;100.00;103393.25;4991774;28;20033;-76
2023/02/06 01:38:59;;;;;;;20.88;8.38;;;;;;;-2.50;100.00;103389.81;5008137;28;20482;-77
2023/02/06 01:41:25;;;;;;;29.77;10.60;;;;;;;-2.49;100.00;103392.41;4994147;28;20513;-76
2023/02/06 01:44:14;;;;;;;24.63;8.95;;;;;;;-2.43;100.00;103392.34;5006745;28;20041;-76
2023/02/06 01:46:43;;;;;;;28.52;10.93;;;;;;;-2.34;100.00;103399.25;4995641;28;20506;-77
2023/02/06 01:49:15;;;;;;;23.30;9.98;;;;;;;-2.38;100.00;103394.94;5027366;28;20056;-76
2023/02/06 01:51:41;;;;;;;33.60;12.18;;;;;;;-2.39;100.00;103411.50;5009355;28;20225;-78
2023/02/06 01:54:07;;;;;;;27.45;11.23;;;;;;;-2.48;100.00;103403.72;4991965;28;20053;-77
2023/02/06 01:56:40;;;;;;;27.85;9.00;;;;;;;-2.48;100.00;103406.34;5008279;28;20044;-75
2023/02/06 01:59:05;;;;;;;29.38;10.00;;;;;;;-2.61;100.00;103389.91;5011188;28;20116;-76
2023/02/06 02:01:32;;;;;;;29.15;9.88;;;;;;;-2.62;100.00;103406.50;5008598;28;20033;-76
2023/02/06 02:04:04;;;;;;;23.95;11.43;;;;;;;-2.69;100.00;103410.91;5010949;28;20072;-76
2023/02/06 02:06:30;;;;;;;29.25;10.65;;;;;;;-2.77;100.00;103403.09;4997950;28;20098;-77
2023/02/06 02:08:56;;;;;;;31.05;11.50;;;;;;;-2.73;100.00;103398.72;5008617;28;20033;-76
2023/02/06 02:11:26;;;;;;;25.98;8.95;;;;;;;-2.77;100.00;103391.75;5010652;28;20128;-77
2023/02/06 02:13:52;;;;;;;31.13;9.65;;;;;;;-2.78;100.00;103401.34;5007983;28;20029;-77
2023/02/06 02:16:25;;;;;;;26.15;9.18;;;;;;;-2.81;100.00;103406.63;4994319;28;20017;-77
2023/02/06 02:19:12;;;;;;;32.08;9.18;;;;;;;-2.79;100.00;103403.97;5008011;28;20030;-77
2023/02/06 02:21:54;;;;;;;30.23;10.30;;;;;;;-2.88;100.00;103397.09;5007451;28;20041;-76
2023/02/06 02:24:44;;;;;;;27.70;9.82;;;;;;;-2.87;100.00;103405.78;4992849;28;20038;-77
2023/02/06 02:27:12;;;;;;;21.50;9.40;;;;;;;-2.84;100.00;103390.94;5020603;28;20426;-77
2023/02/06 02:29:53;;;;;;;28.00;9.73;;;;;;;-2.68;100.00;103382.97;5011556;28;20045;-77
2023/02/06 02:32:31;;;;;;;32.08;9.68;;;;;;;-2.57;100.00;103387.25;5009337;28;20033;-77
2023/02/06 02:35:34;;;;;;;27.13;10.05;;;;;;;-2.61;100.00;103393.38;4992243;28;20493;-76
2023/02/06 02:38:04;;;;;;;;;;;;;;;-2.69;100.00;103392.59;5006203;28;20462;-76
2023/02/06 02:40:37;;;;;;;29.17;8.82;;;;;;;-2.66;100.00;103389.94;5024116;28;20004;-76
2023/02/06 02:43:15;;;;;;;29.95;8.73;;;;;;;-2.73;100.00;103376.94;5013551;28;20044;-77
2023/02/06 02:45:51;;;;;;;18.20;9.55;;;;;;;-2.70;100.00;103385.59;4995799;28;20029;-76
2023/02/06 02:48:25;;;;;;;28.17;9.00;;;;;;;-2.68;100.00;103382.97;5008120;28;20541;-77
2023/02/06 02:50:53;;;;;;;22.63;10.80;;;;;;;-2.75;100.00;103371.69;5025583;28;20117;-77
2023/02/06 02:53:19;;;;;;;25.20;9.98;;;;;;;-3.01;100.00;103364.91;5014143;28;20018;-77
2023/02/06 02:55:45;;;;;;;25.92;8.40;;;;;;;-3.00;100.00;103364.06;5007656;28;20038;-77
2023/02/06 02:58:12;;;;;;;;;;;;;;;-2.89;100.00;103370.94;4994194;28;20121;-77
2023/02/06 03:01:02;;;;;;;29.50;10.50;;;;;;;-2.74;100.00;103362.97;5007398;28;20370;-75
2023/02/06 03:03:31;;;;;;;22.15;10.02;;;;;;;-2.60;100.00;103368.06;4983267;28;20045;-76
2023/02/06 03:06:03;;;;;;;19.92;8.88;;;;;;;-2.55;100.00;103375.03;5007409;28;20382;-77
2023/02/06 03:08:45;;;;;;;24.02;9.35;;;;;;;-2.41;100.00;103376.63;5008332;28;20032;-77
2023/02/06 03:11:19;;;;;;;20.17;9.75;;;;;;;-2.42;100.00;103385.38;5002685;28;20116;-77
2023/02/06 03:13:56;;;;;;;29.08;9.80;;;;;;;-2.44;100.00;103380.13;5006067;28;20049;-76
2023/02/06 03:16:27;;;;;;;30.80;10.68;;;;;;;-2.38;100.00;103392.31;4992552;28;20095;-77
2023/02/06 03:19:01;;;;;;;23.70;8.70;;;;;;;-2.37;100.00;103396.66;5022952;28;20034;-75
2023/02/06 03:21:28;;;;;;;25.63;8.43;;;;;;;-2.43;100.00;103388.88;5006846;28;20512;-76
2023/02/06 03:23:58;;;;;;;22.60;9.40;;;;;;;-2.40;100.00;103401.94;5007672;28;20017;-77
2023/02/06 03:26:26;;;;;;;26.08;9.00;;;;;;;-2.45;100.00;103388.03;5006999;28;20044;-77
2023/02/06 03:28:55;;;;;;;31.27;8.55;;;;;;;-2.50;100.00;103397.66;5006699;28;20033;-77
2023/02/06 03:31:29;;;;;;;28.55;10.32;;;;;;;-2.65;100.00;103391.66;5008455;28;20387;-76
2023/02/06 03:34:01;;;;;;;20.70;8.60;;;;;;;-2.76;100.00;103388.28;5006714;28;20037;-77
2023/02/06 03:36:27;;;;;;;26.33;8.45;;;;;;;-2.89;100.00;103374.41;5008251;28;20030;-76
2023/02/06 03:38:53;;;;;;;27.63;8.95;;;;;;;-2.94;100.00;103352.69;5022605;28;20497;-76
2023/02/06 03:41:24;;;;;;;23.00;8.43;;;;;;;-2.69;100.00;103373.38;4990163;28;20046;-76
2023/02/06 03:43:51;;;;;;;36.85;8.63;;;;;;;-2.55;100.00;103371.53;5022484;28;20026;-77
2023/02/06 03:46:17;;;;;;;23.83;8.20;;;;;;;-2.61;100.00;103359.38;5008167;28;20195;-76
2023/02/06 03:48:51;;;;;;;27.88;8.35;;;;;;;-2.58;100.00;103371.56;5006396;28;20078;-77
2023/02/06 03:51:27;;;;;;;29.83;8.18;;;;;;;-2.58;100.00;103374.16;5008218;28;20044;-76
2023/02/06 03:53:56;;;;;;;25.65;8.85;;;;;;;-2.58;100.00;103369.78;5005941;28;20068;-76
2023/02/06 03:56:34;;;;;;;28.65;8.48;;;;;;;-2.52;100.00;103383.72;5023858;28;20792;-75
2023/02/06 03:58:59;;;;;;;36.45;7.32;;;;;;;-2.45;100.00;103404.59;5004052;28;20091;-76
2023/02/06 04:01:26;;;;;;;19.73;7.22;;;;;;;-2.50;100.00;103368.88;5007534;28;20543;-76
2023/02/06 04:03:52;;;;;;;24.20;8.05;;;;;;;-2.52;100.00;103366.28;5023317;28;20033;-76
2023/02/06 04:06:18;;;;;;;27.20;8.13;;;;;;;-2.57;100.00;103376.78;5007106;28;20033;-76
2023/02/06 04:08:43;;;;;;;28.85;7.85;;;;;;;-2.85;100.00;103357.84;5005467;28;20533;-76
2023/02/06 04:11:08;;;;;;;26.58;7.35;;;;;;;-2.78;100.00;103361.28;5024105;28;20501;-76
2023/02/06 04:13:34;;;;;;;40.65;8.68;;;;;;;-2.82;100.00;103349.97;5006423;28;20029;-78
2023/02/06 04:16:00;;;;;;;20.05;7.18;;;;;;;-2.84;100.00;103353.47;5023569;28;20033;-78
2023/02/06 04:18:26;;;;;;;23.50;6.80;;;;;;;-2.80;100.00;103350.81;5008080;28;20401;-77
2023/02/06 04:20:51;;;;;;;31.85;9.13;;;;;;;-2.77;100.00;103342.94;4988941;28;20037;-76
2023/02/06 04:23:18;;;;;;;26.88;6.13;;;;;;;-2.82;100.00;103330.78;5008007;28;20064;-79
2023/02/06 04:25:44;;;;;;;25.13;6.82;;;;;;;-2.93;100.00;103343.94;5005004;28;20021;-76
2023/02/06 04:28:09;;;;;;;25.95;6.93;;;;;;;-2.99;100.00;103352.72;4991195;28;20048;-76
2023/02/06 04:30:35;;;;;;;24.65;7.00;;;;;;;-2.90;100.00;103350.88;5021130;28;20477;-76
2023/02/06 04:33:00;;;;;;;33.42;7.85;;;;;;;-2.78;100.00;103361.28;4988231;28;20041;-78
2023/02/06 04:35:25;;;;;;;20.75;6.95;;;;;;;-2.87;100.00;103354.38;4990944;28;20029;-76
2023/02/06 04:37:51;;;;;;;16.20;6.90;;;;;;;-3.01;100.00;103356.22;4993806;28;20573;-77
2023/02/06 04:40:16;;;;;;;18.45;5.38;;;;;;;-3.06;100.00;103353.63;4989118;28;20038;-76
2023/02/06 04:42:42;;;;;;;27.67;8.82;;;;;;;-3.04;100.00;103349.28;5004303;28;20033;-78
2023/02/06 04:45:07;;;;;;;;;;;;;;;-2.99;100.00;103355.31;4991338;28;20677;-77
2023/02/06 04:47:33;;;;;;;20.52;7.13;;;;;;;-3.08;100.00;103344.06;5005022;28;19917;-77
2023/02/06 04:49:58;;;;;;;16.50;7.40;;;;;;;-3.11;100.00;103347.56;5007700;28;20025;-76
2023/02/06 04:52:23;;;;;;;31.25;7.03;;;;;;;-3.14;100.00;103339.75;5005516;28;20037;-76
2023/02/06 04:54:49;;;;;;;17.90;6.97;;;;;;;-3.21;100.00;103340.66;5022134;28;20045;-78
2023/02/06 04:57:14;;;;;;;20.67;7.30;;;;;;;-3.27;100.00;103338.09;4988681;28;20041;-76
2023/02/06 04:59:39;;;;;;;20.73;7.40;;;;;;;-3.21;100.00;103340.66;5022073;28;20036;-77
2023/02/06 05:02:05;;;;;;;33.83;8.45;;;;;;;-3.24;100.00;103354.63;5007312;28;20025;-76
2023/02/06 05:04:30;;;;;;;20.42;7.45;;;;;;;-3.26;100.00;103350.28;5006350;28;20403;-76
2023/02/06 05:06:55;;;;;;;21.98;8.18;;;;;;;-3.37;100.00;103341.63;5002866;28;20045;-78
2023/02/06 05:09:21;;;;;;;41.72;9.50;;;;;;;-3.34;100.00;103347.72;4989822;28;20061;-76
2023/02/06 05:11:46;;;;;;;27.65;10.18;;;;;;;-3.25;100.00;103362.47;5005580;28;20045;-76
2023/02/06 05:14:11;;;;;;;;;;;;;;;-3.21;100.00;103369.41;4991244;28;20390;-77
2023/02/06 05:16:37;;;;;;;22.33;8.93;;;;;;;-3.25;100.00;103375.56;5029103;23;20413;-88
2023/02/06 05:19:02;;;;;;;20.75;7.35;;;;;;;-3.30;100.00;103377.28;5016199;28;20037;-89
2023/02/06 05:21:27;;;;;;;;;;;;;;;-3.41;100.00;103366.91;5012196;28;20048;-88
2023/02/06 05:23:53;;;;;;;22.87;6.80;;;;;;;-3.42;100.00;103358.22;5003910;28;19964;-88
2023/02/06 05:26:25;;;;;;;;;;;;;;;-3.33;100.00;103374.72;5013738;28;20029;-88
2023/02/06 05:28:51;;;;;;;26.88;5.80;;;;;;;-3.35;100.00;103368.63;4999690;28;19917;-88
2023/02/06 05:31:19;;;;;;;28.67;8.30;;;;;;;-3.44;100.00;103374.78;5015955;28;20033;-88
2023/02/06 05:33:46;;;;;;;29.15;8.75;;;;;;;-3.41;100.00;103375.63;5016898;28;20475;-88
2023/02/06 05:36:12;;;;;;;22.35;7.80;;;;;;;-3.48;100.00;103366.09;5026881;28;20355;-88
2023/02/06 05:38:37;;;;;;;32.92;9.50;;;;;;;-3.42;100.00;103371.28;4996749;28;20033;-88
2023/02/06 05:41:03;;;;;;;;;;;;;;;-3.42;100.00;103373.91;4997356;28;20061;-88
2023/02/06 05:43:28;;;;;;;26.40;6.80;;;;;;;-3.43;100.00;103373.91;4996810;28;20365;-88
2023/02/06 05:45:53;;;;;;;;;;;;;;;-3.36;100.00;103390.41;5011653;28;20612;-88
2023/02/06 05:48:19;;;;;;;25.13;8.33;;;;;;;-3.36;100.00;103395.63;4995779;28;20381;-88
2023/02/06 05:50:47;;;;;;;;;;;;;;;-3.28;100.00;103412.13;5011431;28;20040;-88
2023/02/06 05:53:15;;;;;;;22.80;6.95;;;;;;;-3.19;100.00;103404.25;4996194;28;20276;-88
2023/02/06 05:55:40;;;;;;;21.35;7.90;;;;;;;-3.07;100.00;103383.25;4995071;28;20124;-88
2023/02/06 05:58:05;;;;;;;27.02;8.98;;;;;;;-2.78;100.00;103408.34;5011866;28;20120;-88
2023/02/06 06:00:31;;;;;;;32.40;9.90;;;;;;;-2.72;100.00;103400.44;4991848;28;20029;-88
2023/02/06 06:02:56;;;;;;;24.23;8.35;;;;;;;-2.69;100.00;103403.03;5012488;28;20885;-88
2023/02/06 06:05:21;;;;;;;21.85;8.57;;;;;;;-2.56;100.00;103422.09;5012290;28;20075;-88
2023/02/06 06:07:47;;;;;;;39.33;8.80;;;;;;;-2.48;100.00;103414.19;4994484;28;20092;-88
2023/02/06 06:10:12;;;;;;;32.95;8.95;;;;;;;-2.23;100.00;103414.84;5013409;28;20045;-87
2023/02/06 06:12:37;;;;;;;33.80;8.55;;;;;;;-2.09;100.00;103452.22;5012434;28;20487;-88
2023/02/06 06:15:03;;;;;;;30.45;8.13;;;;;;;-2.06;100.00;103448.72;5027927;28;20041;-88
2023/02/06 06:17:29;;;;;;;21.60;7.05;;;;;;;-1.93;100.00;103450.34;5012552;28;20040;-88
2023/02/06 06:19:54;;;;;;;30.80;8.73;;;;;;;-1.87;100.00;103454.63;5012073;28;20111;-88
2023/02/06 06:22:19;;;;;;;44.95;9.88;;;;;;;-1.88;100.00;103448.53;5012407;28;20076;-88
2023/02/06 06:24:45;;;;;;;37.97;9.52;;;;;;;-1.83;100.00;103443.25;5026815;28;20038;-89
2023/02/06 06:27:10;;;;;;;47.83;9.55;;;;;;;-1.79;100.00;103448.44;5017912;28;20026;-88
2023/02/06 06:29:36;;;;;;;52.42;12.18;;;;;;;-1.78;100.00;103459.78;5013208;28;20038;-89
2023/02/06 06:32:02;;;;;;;37.17;10.13;;;;;;;-1.76;100.00;103461.47;5015954;28;20872;-88
2023/02/06 06:34:28;;;;;;;44.83;10.30;;;;;;;-1.64;100.00;103457.91;5016230;28;20076;-89
2023/02/06 06:36:53;;;;;;;36.30;12.00;;;;;;;-1.67;100.00;103464.91;5015158;28;20077;-89
2023/02/06 06:39:18;;;;;;;49.92;12.57;;;;;;;-1.65;100.00;103465.75;5015268;28;20110;-89
2023/02/06 06:41:44;;;;;;;42.65;10.38;;;;;;;-1.67;100.00;103459.66;5017219;28;20041;-88
2023/02/06 06:44:09;;;;;;;39.22;9.40;;;;;;;-1.71;100.00;103457.09;5014939;28;20064;-88
2023/02/06 06:46:34;;;;;;;41.40;11.23;;;;;;;-1.65;100.00;103471.00;5015388;28;20571;-88
2023/02/06 06:49:00;;;;;;;72.95;13.32;;;;;;;-1.72;100.00;103470.19;5015560;28;20065;-88
2023/02/06 06:51:28;;;;;;;47.97;10.63;;;;;;;-1.70;100.00;103484.16;5011694;28;20072;-88
2023/02/06 06:53:53;;;;;;;35.97;10.35;;;;;;;-1.69;100.00;103480.63;5014859;28;20041;-88
2023/02/06 06:56:19;;;;;;;36.00;9.32;;;;;;;-1.58;100.00;103493.63;5015237;28;20044;-88
2023/02/06 06:58:44;;;;;;;67.80;13.95;;;;;;;-1.53;100.00;103497.06;5014770;28;20132;-88
2023/02/06 07:01:10;;;;;;;48.47;11.60;;;;;;;-1.48;100.00;103479.53;5031081;28;20052;-89
2023/02/06 07:03:35;;;;;;;47.80;12.68;;;;;;;-1.41;100.00;103499.53;5014509;28;20505;-88
2023/02/06 07:06:01;;;;;;;45.05;13.15;;;;;;;-1.37;100.00;103508.25;5011462;28;20034;-88
2023/02/06 07:08:28;;;;;;;55.40;13.60;;;;;;;-1.34;100.00;103503.81;4998562;28;20120;-88
2023/02/06 07:10:54;;;;;;;103.63;16.35;;;;;;;-1.21;100.00;103493.19;5014502;28;20069;-88
2023/02/06 07:13:20;;;;;;;54.47;14.50;;;;;;;-1.13;100.00;103496.59;5014636;28;20044;-89
2023/02/06 07:15:46;;;;;;;53.83;16.65;;;;;;;-1.04;100.00;103491.22;5012395;28;20390;-89
2023/02/06 07:18:11;;;;;;;91.03;17.83;;;;;;;-1.01;100.00;103492.94;5030629;28;20030;-89
2023/02/06 07:20:37;;;;;;;95.25;17.38;;;;;;;-0.99;100.00;103497.25;4997515;28;20044;-89
2023/02/06 07:23:03;;;;;;;55.03;13.95;;;;;;;-0.88;100.00;103490.13;5014857;28;20040;-90
2023/02/06 07:25:29;;;;;;;82.45;15.30;;;;;;;-0.76;100.00;103480.34;5014451;28;20037;-89
2023/02/06 07:27:54;;;;;;;64.50;14.10;;;;;;;-0.87;100.00;103468.28;4998071;28;20076;-89
2023/02/06 07:30:20;;;;;;;82.43;14.93;;;;;;;-0.83;100.00;103476.94;5014149;28;20037;-88
2023/02/06 07:32:45;;;;;;;81.28;16.75;;;;;;;-0.76;100.00;103486.47;5029586;28;20041;-88
2023/02/06 07:35:11;;;;;;;63.17;13.70;;;;;;;-0.56;100.00;103493.16;4994728;28;20033;-86
2023/02/06 07:37:36;;;;;;;64.03;14.10;;;;;;;-0.45;100.00;103494.72;4997905;28;20416;-87
2023/02/06 07:40:03;;;;;;;53.33;13.90;;;;;;;-0.32;100.00;103486.69;4999792;28;20508;-88
2023/02/06 07:42:28;;;;;;;38.45;13.52;;;;;;;-0.24;100.00;103490.91;5029822;28;20034;-87
2023/02/06 07:44:59;;;;;;;49.53;13.07;;;;;;;-0.22;100.00;103485.63;5013610;28;20059;-87
2023/02/06 07:47:24;;;;;;;51.78;13.57;;;;;;;-0.13;100.00;103474.97;5014188;28;20390;-88
2023/02/06 07:49:50;;;;;;;70.20;15.68;;;;;;;-0.09;100.00;103474.03;5014190;28;20037;-87
2023/02/06 07:52:15;;;;;;;45.00;14.80;;;;;;;0.04;100.00;103492.19;5013929;28;20025;-88
2023/02/06 07:54:40;;;;;;;56.50;14.90;;;;;;;0.08;100.00;103491.25;5013594;28;20092;-88
2023/02/06 07:57:06;;;;;;;53.10;13.50;;;;;;;0.16;100.00;103497.22;4994595;28;20045;-88
2023/02/06 07:59:31;;;;;;;39.10;12.40;;;;;;;0.30;100.00;103496.97;5015539;28;20032;-88
2023/02/06 08:01:57;;;;;;;48.17;13.90;;;;;;;0.30;100.00;103500.47;5030821;28;20287;-89
2023/02/06 08:04:22;;;;;;;61.88;13.00;;;;;;;0.24;100.00;103495.34;5013390;28;20033;-88
2023/02/06 08:06:48;;;;;;;61.53;13.67;;;;;;;0.18;100.00;103490.19;5012022;28;20039;-87
2023/02/06 08:09:18;;;;;;;82.85;16.73;;;;;;;0.16;100.00;103479.72;5013265;28;20292;-88
2023/02/06 08:11:46;;;;;;;67.22;12.93;;;;;;;0.24;100.00;103486.59;4997036;28;20029;-88
2023/02/06 08:14:12;;;;;;;47.25;11.88;;;;;;;0.30;100.00;103489.09;5029353;28;20043;-88
2023/02/06 08:16:38;;;;;;;41.65;12.13;;;;;;;0.34;100.00;103489.00;5013826;28;20398;-88
2023/02/06 08:19:05;;;;;;;;;;;;;;;0.43;100.00;103492.38;5033384;28;20520;-88
2023/02/06 08:21:31;;;;;;;45.28;11.75;;;;;;;0.44;100.00;103480.94;5001001;28;20039;-88
2023/02/06 08:23:58;;;;;;;43.25;11.25;;;;;;;0.44;100.00;103473.91;4992145;28;20053;-88
2023/02/06 08:26:25;;;;;;;44.53;10.82;;;;;;;0.49;100.00;103477.34;5013199;28;20104;-88
2023/02/06 08:28:51;;;;;;;36.00;11.05;;;;;;;0.55;100.00;103469.31;5012981;28;20433;-88
2023/02/06 08:31:18;;;;;;;;;;;;;;;0.82;100.00;103480.19;5030838;28;20041;-88
2023/02/06 08:33:44;;;;;;;40.75;11.55;;;;;;;0.88;100.00;103477.41;4996190;28;19913;-88
2023/02/06 08:36:11;;;;;;;44.13;10.75;;;;;;;1.16;100.00;103488.19;5028996;28;20037;-88
2023/02/06 08:38:36;;;;;;;47.75;12.65;;;;;;;1.42;100.00;103497.25;5029295;28;20832;-88
2023/02/06 08:41:03;;;;;;;27.88;9.57;;;;;;;1.19;100.00;103490.75;5012595;28;20045;-88
2023/02/06 08:43:28;;;;;;;27.15;10.30;;;;;;;1.26;100.00;103483.56;5012673;28;20442;-87
2023/02/06 08:45:58;;;;;;;51.15;11.55;;;;;;;1.37;100.00;103485.97;5033612;28;20029;-88
2023/02/06 08:48:25;;;;;;;26.45;9.38;;;;;;;1.45;100.00;103470.84;4997225;28;20054;-88
2023/02/06 08:50:50;;;;;;;46.30;12.25;;;;;;;1.86;100.00;103479.50;4995377;28;20033;-88
2023/02/06 08:53:15;;;;;;;37.05;12.13;;;;;;;2.34;100.00;103473.81;5012464;28;20259;-89
2023/02/06 08:55:41;;;;;;;32.20;12.27;;;;;;;2.94;100.00;103494.09;5010518;28;20030;-88
2023/02/06 08:58:06;;;;;;;32.00;10.57;;;;;;;3.26;100.00;103475.56;5015025;28;20033;-88
2023/02/06 09:00:32;;;;;;;39.35;11.88;;;;;;;3.53;100.00;103472.00;5008087;28;20038;-88
2023/02/06 09:02:57;;;;;;;39.33;12.32;;;;;;;3.63;100.00;103469.94;5030151;28;20092;-87
2023/02/06 09:05:23;;;;;;;40.40;12.77;;;;;;;3.55;100.00;103459.63;5029773;28;20029;-87
2023/02/06 09:07:48;;;;;;;37.92;12.88;;;;;;;3.18;100.00;103433.53;5028226;28;20275;-87
2023/02/06 09:10:15;;;;;;;45.72;13.35;;;;;;;3.27;100.00;103441.16;5012389;28;20055;-87
2023/02/06 09:12:41;;;;;;;48.00;13.13;;;;;;;3.20;100.00;103442.28;5011957;28;20469;-87
2023/02/06 09:15:07;;;;;;;41.15;12.70;;;;;;;2.97;100.00;103442.97;5028357;28;20529;-87
2023/02/06 09:17:33;;;;;;;49.28;12.10;;;;;;;2.98;100.00;103443.88;5009559;28;20132;-88
2023/02/06 09:19:59;;;;;;;40.45;13.65;;;;;;;2.90;100.00;103433.53;5024786;28;20129;-88
2023/02/06 09:22:25;;;;;;;42.25;14.45;;;;;;;2.75;100.00;103435.72;5011405;28;20033;-89
2023/02/06 09:24:50;;;;;;;47.13;12.98;;;;;;;2.68;100.00;103433.31;5027709;28;20033;-88
2023/02/06 09:27:16;;;;;;;42.50;14.00;;;;;;;2.69;100.00;103437.66;5012113;28;20041;-88
2023/02/06 09:29:41;;;;;;;34.50;11.45;;;;;;;2.49;100.00;103435.63;5011893;28;20025;-89
2023/02/06 09:32:06;;;;;;;36.53;12.47;;;;;;;2.49;100.00;103436.50;5012324;28;20042;-89
2023/02/06 09:34:32;;;;;;;39.92;11.32;;;;;;;2.61;100.00;103447.59;5008733;28;20060;-89
2023/02/06 09:37:01;;;;;;;44.65;13.30;;;;;;;2.61;100.00;103450.25;5012066;28;20548;-89
2023/02/06 09:39:26;;;;;;;56.08;12.63;;;;;;;2.68;100.00;103447.38;5029685;28;20026;-89
2023/02/06 09:41:55;;;;;;;51.42;12.77;;;;;;;2.64;100.00;103458.06;5010927;28;20021;-89
2023/02/06 09:44:26;;;;;;;34.80;11.20;;;;;;;2.49;100.00;103452.31;5011816;28;20112;-88
2023/02/06 09:47:03;;;;;;;37.75;12.38;;;;;;;2.60;100.00;103459.03;5011485;28;20033;-87
2023/02/06 09:49:54;;;;;;;40.47;12.15;;;;;;;2.60;100.00;103453.78;5024908;28;20037;-88
2023/02/06 09:53:04;;;;;;;31.73;10.60;;;;;;;2.79;100.00;103476.09;5011713;28;20065;-88
2023/02/06 09:55:35;;;;;;;24.70;9.77;;;;;;;3.01;100.00;103473.66;4975073;28;20047;-89
2023/02/06 09:58:14;;;;;;;34.97;9.95;;;;;;;3.09;100.00;103470.78;5028355;28;20441;-88
2023/02/06 10:00:49;;;;;;;39.22;10.27;;;;;;;3.03;100.00;103468.34;5028521;28;20041;-88
2023/02/06 10:03:52;;;;;;;28.52;8.85;;;;;;;3.08;100.00;103480.47;4999456;28;20087;-89
2023/02/06 10:06:32;;;;;;;25.92;8.88;;;;;;;3.13;100.00;103470.63;5027437;28;20030;-89
2023/02/06 10:09:10;;;;;;;28.77;7.55;;;;;;;3.60;100.00;103475.31;5016380;28;20041;-89
2023/02/06 10:11:46;;;;;;;26.02;8.35;;;;;;;3.76;100.00;103480.97;5031478;28;20029;-88
2023/02/06 10:14:21;;;;;;;34.75;8.63;;;;;;;3.79;100.00;103455.31;5032078;28;20037;-90
2023/02/06 10:16:55;;;;;;;29.45;7.53;;;;;;;3.84;100.00;103448.97;5015095;28;20526;-89
2023/02/06 10:19:38;;;;;;;33.55;8.02;;;;;;;3.86;100.00;103420.72;5015246;28;20033;-89
2023/02/06 10:22:15;;;;;;;28.83;7.22;;;;;;;4.11;100.00;103424.22;5013549;28;20063;-89
2023/02/06 10:25:05;;;;;;;22.80;7.45;;;;;;;4.93;100.00;103424.69;5015260;28;20037;-89
2023/02/06 10:27:34;;;;;;;21.15;7.25;;;;;;;6.26;100.00;103434.16;5015217;28;20049;-89
2023/02/06 10:30:00;;;;;;;21.45;6.60;;;;;;;7.16;100.00;103381.25;5015156;28;20021;-89
2023/02/06 10:32:44;;;;;;;;;;;;;;;7.53;100.00;103290.81;5015662;28;20033;-89
2023/02/06 10:35:38;;;;;;;24.67;7.47;;;;;;;7.21;100.00;103135.72;5009055;28;20003;-89
2023/02/06 10:38:29;;;;;;;21.48;6.30;;;;;;;7.81;100.00;103016.28;5032779;28;20045;-88
2023/02/06 10:41:16;;;;;;;20.00;6.75;;;;;;;7.87;100.00;102831.56;5020642;28;20087;-89
2023/02/06 10:43:51;;;;;;;22.88;7.30;;;;;;;8.14;100.00;102741.19;5033096;28;20372;-89
2023/02/06 10:46:29;;;;;;;19.67;6.65;;;;;;;8.85;100.00;102706.38;5022097;28;20044;-90
2023/02/06 10:49:10;;;;;;;22.85;6.10;;;;;;;9.20;100.00;102523.69;5020432;28;20045;-89
2023/02/06 10:51:42;;;;;;;20.45;6.32;;;;;;;9.52;100.00;102337.38;5037956;28;20464;-89
2023/02/06 10:54:17;;;;;;;23.02;5.93;;;;;;;9.19;100.00;102053.00;5013415;28;20034;-90
2023/02/06 10:56:44;;;;;;;16.13;4.90;;;;;;;8.89;100.00;101931.91;5017927;28;20037;-90
2023/02/06 10:59:35;;;;;;;16.00;5.68;;;;;;;7.16;100.00;101807.81;5017519;28;20018;-89
2023/02/06 11:02:06;;;;;;;19.60;5.80;;;;;;;6.46;100.00;101861.56;5019664;28;20037;-89
2023/02/06 11:04:39;;;;;;;22.10;6.85;;;;;;;6.40;100.00;102151.16;5031938;28;20123;-90
2023/02/06 11:07:18;;;;;;;24.33;5.63;;;;;;;6.76;100.00;102164.59;5014010;28;20045;-88
2023/02/06 11:09:44;;;;;;;18.40;6.05;;;;;;;7.10;100.00;102336.78;5019435;23;20046;-75
2023/02/06 11:12:27;;;;;;;13.52;4.82;;;;;;;8.33;100.00;102261.84;4983606;28;20080;-75
2023/02/06 11:14:56;;;;;;;16.98;4.85;;;;;;;9.06;100.00;102007.81;5004071;28;20025;-74
2023/02/06 11:17:26;;;;;;;16.77;4.85;;;;;;;9.63;100.00;101892.09;5001798;28;20053;-74
2023/02/06 11:19:57;;;;;;;11.90;4.00;;;;;;;8.93;100.00;101423.84;4979513;28;20034;-74